createdAt,value
2019-03-26T00:02:39.533Z,86.97
2019-03-26T00:06:43.138Z,87.07
2019-03-26T00:10:46.724Z,87.34
2019-03-26T00:14:50.141Z,87.10
2019-03-26T00:18:53.815Z,87.12
2019-03-26T00:22:57.104Z,87.30
2019-03-26T00:27:00.452Z,87.54
2019-03-26T00:31:05.130Z,88.04
2019-03-26T00:35:08.517Z,87.74
2019-03-26T00:39:11.744Z,88.37
2019-03-26T00:43:15.277Z,88.52
2019-03-26T00:47:19.182Z,88.00
2019-03-26T00:51:22.622Z,88.15
2019-03-26T00:55:26.109Z,88.62
2019-03-26T00:59:29.685Z,88.86
2019-03-26T01:03:33.213Z,89.15
2019-03-26T01:07:36.821Z,89.20
2019-03-26T01:11:40.657Z,89.61
2019-03-26T01:15:44.395Z,89.55
2019-03-26T01:19:47.648Z,89.25
2019-03-26T01:23:51.085Z,89.43
2019-03-26T01:27:54.530Z,89.69
2019-03-26T01:31:58.918Z,89.77
2019-03-26T01:36:02.609Z,89.83
2019-03-26T01:40:07.372Z,89.94
2019-03-26T01:44:10.822Z,89.90
2019-03-26T01:48:14.403Z,89.87
2019-03-26T01:52:21.287Z,89.71
2019-03-26T01:56:24.805Z,89.81
2019-03-26T02:00:28.350Z,89.97
2019-03-26T02:04:31.953Z,89.80
2019-03-26T02:08:35.368Z,89.73
2019-03-26T02:12:38.954Z,89.62
2019-03-26T02:16:42.705Z,89.63
2019-03-26T02:20:48.108Z,89.51
2019-03-26T02:24:51.780Z,89.48
2019-03-26T02:28:55.492Z,89.66
2019-03-26T02:32:58.988Z,89.79
2019-03-26T02:37:02.545Z,90.02
2019-03-26T02:41:06.013Z,90.12
2019-03-26T02:45:09.939Z,90.16
2019-03-26T02:49:13.459Z,90.23
2019-03-26T02:53:17.386Z,89.98
2019-03-26T02:57:21.139Z,89.91
2019-03-26T03:01:24.745Z,89.61
2019-03-26T03:05:35.562Z,89.76
2019-03-26T03:09:33.527Z,90.03
2019-03-26T03:13:36.969Z,90.74
2019-03-26T03:17:40.427Z,90.58
2019-03-26T03:21:44.148Z,89.99
2019-03-26T03:25:47.659Z,89.96
2019-03-26T03:29:51.105Z,89.67
2019-03-26T03:33:54.925Z,89.69
2019-03-26T03:37:58.602Z,89.81
2019-03-26T03:42:02.510Z,89.71
2019-03-26T03:46:06.425Z,89.96
2019-03-26T03:50:11.893Z,89.81
2019-03-26T03:54:16.365Z,89.93
2019-03-26T03:58:22.398Z,89.75
2019-03-26T04:02:25.826Z,89.95
2019-03-26T04:06:29.429Z,90.43
2019-03-26T04:10:32.852Z,90.42
2019-03-26T04:14:37.553Z,90.05
2019-03-26T04:18:41.024Z,89.87
2019-03-26T04:22:46.443Z,89.74
2019-03-26T04:26:50.133Z,89.57
2019-03-26T04:30:53.782Z,89.58
2019-03-26T04:34:57.415Z,89.72
2019-03-26T04:39:01.068Z,89.64
2019-03-26T04:43:06.086Z,89.58
2019-03-26T04:47:09.645Z,89.35
2019-03-26T04:51:13.220Z,89.29
2019-03-26T04:55:16.744Z,89.44
2019-03-26T04:59:21.436Z,89.25
2019-03-26T05:03:25.264Z,89.17
2019-03-26T05:07:28.785Z,89.31
2019-03-26T05:11:32.343Z,89.56
2019-03-26T05:15:35.786Z,90.09
2019-03-26T05:19:39.381Z,90.12
2019-03-26T05:23:43.269Z,89.18
2019-03-26T05:27:46.773Z,88.04
2019-03-26T05:31:50.232Z,88.22
2019-03-26T05:35:53.802Z,87.84
2019-03-26T05:39:57.247Z,87.90
2019-03-26T05:44:00.808Z,87.68
2019-03-26T05:48:04.374Z,86.45
2019-03-26T05:52:07.969Z,85.71
2019-03-26T05:56:11.493Z,84.98
2019-03-26T06:00:22.843Z,83.71
2019-03-26T06:04:26.312Z,83.49
2019-03-26T06:08:29.890Z,81.74
2019-03-26T06:12:33.323Z,81.18
2019-03-26T06:16:38.556Z,79.52
2019-03-26T06:20:41.968Z,79.65
2019-03-26T06:24:45.858Z,78.91
2019-03-26T06:28:49.325Z,76.58
2019-03-26T06:32:52.882Z,76.97
2019-03-26T06:36:56.356Z,76.13
2019-03-26T06:40:59.941Z,75.27
2019-03-26T06:45:03.218Z,71.38
2019-03-26T06:49:06.548Z,73.66
2019-03-26T06:53:09.798Z,71.16
2019-03-26T06:57:13.100Z,68.32
2019-03-26T07:01:16.472Z,70.72
2019-03-26T07:05:19.823Z,65.93
2019-03-26T07:09:23.122Z,65.58
2019-03-26T07:13:26.586Z,64.59
2019-03-26T07:17:30.103Z,64.10
2019-03-26T07:21:33.669Z,59.77
2019-03-26T07:25:38.977Z,60.90
2019-03-26T07:29:43.569Z,59.71
2019-03-26T07:33:47.029Z,58.74
2019-03-26T07:37:50.574Z,55.48
2019-03-26T07:41:54.035Z,57.48
2019-03-26T07:45:57.513Z,54.57
2019-03-26T07:50:00.954Z,53.09
2019-03-26T07:54:04.643Z,52.35
2019-03-26T07:58:08.085Z,52.25
2019-03-26T08:02:11.539Z,51.42
2019-03-26T08:06:15.001Z,51.09
2019-03-26T08:10:18.574Z,47.63
2019-03-26T08:14:22.072Z,49.19
2019-03-26T08:18:25.979Z,48.53
2019-03-26T08:22:29.379Z,48.32
2019-03-26T08:26:33.014Z,49.59
2019-03-26T08:30:36.258Z,49.83
2019-03-26T08:34:39.544Z,47.46
2019-03-26T08:38:43.021Z,47.33
2019-03-26T08:42:46.677Z,47.05
2019-03-26T08:46:50.190Z,45.05
2019-03-26T08:50:53.759Z,46.80
2019-03-26T08:54:57.320Z,44.52
2019-03-26T08:59:00.871Z,45.34
2019-03-26T09:03:04.440Z,44.86
2019-03-26T09:07:11.084Z,43.49
2019-03-26T09:11:14.744Z,46.08
2019-03-26T09:15:18.399Z,43.92
2019-03-26T09:19:21.910Z,42.08
2019-03-26T09:23:25.526Z,44.85
2019-03-26T09:27:30.630Z,43.11
2019-03-26T09:31:34.175Z,44.86
2019-03-26T09:35:37.844Z,44.77
2019-03-26T09:39:42.877Z,42.24
2019-03-26T09:43:46.304Z,43.93
2019-03-26T09:47:49.911Z,43.67
2019-03-26T09:51:53.431Z,42.92
2019-03-26T09:55:57.765Z,42.75
2019-03-26T10:00:01.262Z,42.66
2019-03-26T10:04:04.880Z,41.12
2019-03-26T10:08:08.400Z,41.70
2019-03-26T10:12:11.956Z,41.08
2019-03-26T10:16:15.421Z,41.66
2019-03-26T10:20:19.000Z,42.44
2019-03-26T10:24:22.531Z,42.69
2019-03-26T10:28:26.225Z,42.62
2019-03-26T10:32:29.483Z,42.20
2019-03-26T10:36:32.950Z,42.21
2019-03-26T10:40:37.534Z,42.93
2019-03-26T10:44:40.856Z,40.74
2019-03-26T10:48:44.123Z,42.20
2019-03-26T10:52:47.441Z,41.80
2019-03-26T10:56:51.715Z,40.86
2019-03-26T11:00:55.148Z,40.94
2019-03-26T11:04:58.409Z,42.16
2019-03-26T11:09:01.731Z,40.48
2019-03-26T11:13:06.618Z,41.02
2019-03-26T11:17:09.948Z,40.93
2019-03-26T11:21:13.270Z,42.18
2019-03-26T11:25:17.093Z,41.13
2019-03-26T11:29:20.665Z,39.52
2019-03-26T11:33:24.047Z,40.75
2019-03-26T11:37:27.413Z,40.75
2019-03-26T11:41:30.755Z,39.88
2019-03-26T11:45:34.115Z,40.59
2019-03-26T11:49:37.480Z,40.67
2019-03-26T11:53:40.731Z,40.06
2019-03-26T11:57:44.034Z,40.50
2019-03-26T12:01:47.294Z,40.06
2019-03-26T12:05:50.635Z,39.95
2019-03-26T12:09:54.173Z,39.22
2019-03-26T12:13:57.592Z,38.52
2019-03-26T12:18:00.921Z,38.87
2019-03-26T12:22:04.248Z,38.40
2019-03-26T12:26:07.541Z,38.39
2019-03-26T12:30:13.289Z,38.07
2019-03-26T12:34:16.558Z,38.93
2019-03-26T12:38:23.437Z,38.35
2019-03-26T12:42:26.698Z,39.49
2019-03-26T12:46:30.047Z,37.42
2019-03-26T12:50:33.327Z,38.20
2019-03-26T12:54:36.699Z,37.41
2019-03-26T12:58:40.112Z,37.44
2019-03-26T13:02:43.498Z,37.80
2019-03-26T13:06:46.784Z,37.73
2019-03-26T13:10:53.874Z,37.58
2019-03-26T13:14:55.516Z,38.09
2019-03-26T13:18:58.907Z,37.08
2019-03-26T13:23:02.393Z,37.58
2019-03-26T13:27:05.725Z,37.04
2019-03-26T13:31:09.239Z,38.83
2019-03-26T13:35:13.138Z,38.77
2019-03-26T13:39:16.440Z,36.93
2019-03-26T13:43:19.811Z,37.95
2019-03-26T13:47:23.079Z,37.54
2019-03-26T13:51:28.122Z,38.02
2019-03-26T13:55:31.370Z,37.89
2019-03-26T13:59:34.750Z,37.41
2019-03-26T14:03:39.139Z,36.55
2019-03-26T14:07:42.474Z,36.66
2019-03-26T14:11:46.065Z,36.21
2019-03-26T14:15:49.444Z,35.24
2019-03-26T14:19:52.843Z,35.57
2019-03-26T14:23:58.348Z,35.19
2019-03-26T14:28:01.612Z,35.71
2019-03-26T14:32:05.021Z,35.71
2019-03-26T14:36:08.299Z,35.01
2019-03-26T14:40:12.058Z,34.38
2019-03-26T14:44:15.343Z,34.28
2019-03-26T14:48:18.718Z,34.12
2019-03-26T14:52:21.988Z,35.07
2019-03-26T14:56:25.325Z,34.39
2019-03-26T15:00:28.768Z,34.36
2019-03-26T15:04:32.081Z,35.30
2019-03-26T15:08:35.423Z,30.53
2019-03-26T15:12:39.005Z,32.15
2019-03-26T15:16:42.497Z,32.73
2019-03-26T15:20:45.920Z,31.27
2019-03-26T15:24:49.250Z,32.64
2019-03-26T15:28:54.219Z,30.80
2019-03-26T15:32:57.756Z,30.46
2019-03-26T15:37:01.107Z,30.57
2019-03-26T15:41:04.421Z,29.71
2019-03-26T15:45:09.064Z,33.37
2019-03-26T15:49:12.444Z,35.18
2019-03-26T15:53:17.290Z,35.24
2019-03-26T15:57:20.551Z,37.23
2019-03-26T16:01:24.651Z,38.16
2019-03-26T16:05:28.215Z,38.10
2019-03-26T16:09:31.602Z,36.76
2019-03-26T16:13:35.959Z,37.72
2019-03-26T16:17:39.475Z,37.44
2019-03-26T16:21:42.906Z,38.88
2019-03-26T16:25:46.302Z,37.92
2019-03-26T16:29:50.669Z,39.03
2019-03-26T16:33:55.825Z,39.26
2019-03-26T16:37:59.093Z,39.85
2019-03-26T16:42:02.457Z,40.71
2019-03-26T16:46:05.730Z,40.46
2019-03-26T16:50:09.514Z,41.05
2019-03-26T16:54:12.839Z,41.65
2019-03-26T16:58:16.390Z,41.09
2019-03-26T17:02:19.777Z,44.41
2019-03-26T17:06:25.045Z,47.68
2019-03-26T17:10:28.509Z,48.83
2019-03-26T17:14:40.496Z,45.10
2019-03-26T17:18:44.987Z,50.07
2019-03-26T17:22:48.963Z,50.69
2019-03-26T17:26:53.482Z,50.87
2019-03-26T17:30:57.126Z,51.70
2019-03-26T17:35:01.508Z,52.74
2019-03-26T17:39:09.192Z,53.78
2019-03-26T17:43:14.084Z,55.14
2019-03-26T17:47:18.823Z,54.42
2019-03-26T17:51:22.759Z,53.08
2019-03-26T17:55:26.463Z,54.99
2019-03-26T17:59:30.630Z,56.53
2019-03-26T18:03:34.440Z,57.19
2019-03-26T18:07:38.864Z,57.20
2019-03-26T18:11:42.583Z,55.58
2019-03-26T18:15:46.750Z,54.43
2019-03-26T18:19:51.270Z,55.12
2019-03-26T18:23:55.142Z,54.81
2019-03-26T18:27:59.725Z,56.25
2019-03-26T18:32:03.328Z,57.55
2019-03-26T18:36:07.229Z,57.89
2019-03-26T18:40:10.942Z,59.17
2019-03-26T18:44:15.648Z,58.26
2019-03-26T18:48:20.175Z,57.66
2019-03-26T18:52:24.254Z,57.04
2019-03-26T18:56:27.801Z,58.23
2019-03-26T19:00:39.567Z,58.10
2019-03-26T19:04:43.652Z,59.40
2019-03-26T19:08:47.258Z,61.84
2019-03-26T19:12:56.826Z,61.48
2019-03-26T19:16:56.364Z,61.63
2019-03-26T19:21:02.427Z,60.20
2019-03-26T19:25:06.435Z,59.91
2019-03-26T19:29:10.136Z,61.12
2019-03-26T19:33:14.286Z,62.68
2019-03-26T19:37:18.550Z,63.61
2019-03-26T19:41:22.188Z,64.69
2019-03-26T19:45:27.083Z,64.78
2019-03-26T19:49:31.709Z,65.96
2019-03-26T19:53:35.315Z,64.54
2019-03-26T19:57:38.935Z,63.48
2019-03-26T20:01:42.909Z,62.51
2019-03-26T20:05:46.599Z,64.79
2019-03-26T20:09:51.045Z,65.72
2019-03-26T20:13:55.621Z,65.94
2019-03-26T20:18:00.107Z,67.01
2019-03-26T20:22:04.537Z,66.75
2019-03-26T20:26:08.001Z,66.69
2019-03-26T20:30:12.445Z,66.76
2019-03-26T20:34:16.225Z,65.82
2019-03-26T20:38:22.114Z,65.24
2019-03-26T20:42:25.774Z,64.52
2019-03-26T20:46:30.166Z,64.23
2019-03-26T20:50:33.689Z,64.90
2019-03-26T20:54:38.375Z,64.71
2019-03-26T20:58:42.378Z,65.60
2019-03-26T21:02:45.987Z,66.57
2019-03-26T21:06:49.468Z,65.14
2019-03-26T21:10:53.650Z,64.32
2019-03-26T21:14:57.666Z,63.78
2019-03-26T21:19:01.220Z,64.11
2019-03-26T21:23:06.069Z,63.78
2019-03-26T21:27:09.633Z,64.90
2019-03-26T21:31:13.688Z,66.36
2019-03-26T21:35:18.322Z,66.76
2019-03-26T21:39:22.446Z,67.47
2019-03-26T21:43:26.128Z,66.69
2019-03-26T21:47:29.785Z,65.75
2019-03-26T21:51:33.440Z,65.91
2019-03-26T21:55:37.930Z,65.90
2019-03-26T21:59:42.330Z,65.53
2019-03-26T22:03:46.622Z,65.43
2019-03-26T22:07:50.179Z,66.34
2019-03-26T22:11:53.629Z,66.81
2019-03-26T22:15:58.938Z,67.40
2019-03-26T22:20:03.154Z,67.40
2019-03-26T22:24:06.877Z,67.11
2019-03-26T22:28:10.559Z,67.66
2019-03-26T22:32:14.412Z,68.14
2019-03-26T22:36:17.889Z,69.20
2019-03-26T22:40:22.131Z,68.95
2019-03-26T22:44:31.429Z,69.06
2019-03-26T22:48:30.986Z,70.51
2019-03-26T22:52:34.437Z,70.34
2019-03-26T22:56:38.026Z,70.09
2019-03-26T23:00:41.935Z,70.59
2019-03-26T23:04:47.233Z,70.36
2019-03-26T23:08:50.723Z,69.65
2019-03-26T23:12:54.304Z,69.92
2019-03-26T23:16:57.754Z,70.63
2019-03-26T23:21:01.410Z,70.72
2019-03-26T23:25:04.970Z,70.86
2019-03-26T23:29:09.568Z,71.08
2019-03-26T23:33:13.027Z,71.71
2019-03-26T23:37:16.744Z,71.36
2019-03-26T23:41:21.405Z,71.96
2019-03-26T23:45:25.068Z,71.84
2019-03-26T23:49:28.428Z,71.93
2019-03-26T23:53:31.985Z,71.53
2019-03-26T23:57:37.396Z,72.45
